Time;durP1;ratioP1;P1;durP2;ratioP2;P2;SDS_P1;SDS_P2;PMS_P1;PMS_P2;Temp;Humidity;BMP_temperature;BMP_pressure;BME280_temperature;BME280_humidity;BME280_pressure;Samples;Min_cycle;Max_cycle;Signal;HPM_P1;HPM_P2
2021/09/16 00:00:21;;;;;;;13.52;5.15;;;;;;;15.18;100.00;100956.28;4981481;28;20411;-75
2021/09/16 00:02:46;;;;;;;12.02;5.47;;;;;;;15.13;100.00;100952.50;4959220;28;20530;-77
2021/09/16 00:05:12;;;;;;;11.93;5.95;;;;;;;15.23;100.00;100961.03;4989395;28;20037;-76
2021/09/16 00:07:38;;;;;;;15.82;5.22;;;;;;;15.18;100.00;100958.94;4959939;28;20534;-77
2021/09/16 00:10:05;;;;;;;11.68;5.60;;;;;;;15.17;100.00;100962.56;4955003;28;20035;-76
2021/09/16 00:12:31;;;;;;;14.60;5.93;;;;;;;15.15;100.00;100958.44;4976889;28;20125;-76
2021/09/16 00:14:57;;;;;;;21.58;6.22;;;;;;;15.13;100.00;100966.53;4991034;28;20617;-77
2021/09/16 00:17:23;;;;;;;14.27;6.57;;;;;;;15.14;100.00;100970.84;4959596;28;20040;-77
2021/09/16 00:19:48;;;;;;;13.25;6.45;;;;;;;15.11;100.00;100957.97;4983064;28;20030;-75
2021/09/16 00:22:14;;;;;;;12.63;6.45;;;;;;;15.12;100.00;100958.78;4989784;28;20030;-76
2021/09/16 00:24:39;;;;;;;14.15;6.45;;;;;;;15.09;100.00;100965.22;4968090;28;20035;-76
2021/09/16 00:27:09;;;;;;;14.68;7.03;;;;;;;15.09;100.00;100969.69;4984895;28;20041;-77
2021/09/16 00:29:34;;;;;;;21.00;8.82;;;;;;;15.05;100.00;100971.00;4954699;28;20110;-74
2021/09/16 00:32:00;;;;;;;13.20;7.60;;;;;;;15.07;100.00;100969.03;4971762;28;20488;-77
2021/09/16 00:34:25;;;;;;;20.55;7.75;;;;;;;15.17;100.00;100967.03;4978115;28;20044;-77
2021/09/16 00:36:51;;;;;;;22.42;8.13;;;;;;;15.08;100.00;100974.13;4956871;28;20044;-78
2021/09/16 00:39:17;;;;;;;16.55;7.80;;;;;;;15.04;100.00;100972.84;4952708;28;20085;-75
2021/09/16 00:41:43;;;;;;;15.95;8.35;;;;;;;15.04;100.00;100972.03;4972363;28;20027;-76
2021/09/16 00:44:09;;;;;;;17.98;7.28;;;;;;;15.03;100.00;100967.72;4981785;28;20105;-76
2021/09/16 00:46:35;;;;;;;19.52;7.38;;;;;;;15.13;100.00;100974.47;4978969;28;20427;-77
2021/09/16 00:49:04;;;;;;;18.58;7.68;;;;;;;15.06;100.00;100977.97;4980392;28;20513;-74
2021/09/16 00:51:30;;;;;;;16.73;7.50;;;;;;;15.04;100.00;100983.41;4955933;28;20049;-77
2021/09/16 00:53:58;;;;;;;21.38;8.68;;;;;;;15.01;100.00;100977.63;4969814;28;20547;-74
2021/09/16 00:56:24;;;;;;;22.25;7.78;;;;;;;14.97;100.00;100990.34;4969187;28;20040;-75
2021/09/16 00:58:52;;;;;;;19.48;7.40;;;;;;;14.98;100.00;100989.38;4970705;28;20034;-76
2021/09/16 01:01:18;;;;;;;20.90;7.03;;;;;;;14.96;100.00;100986.91;4990699;28;20133;-76
2021/09/16 01:03:45;;;;;;;19.17;6.68;;;;;;;14.95;100.00;100987.88;4972865;28;20050;-75
2021/09/16 01:06:11;;;;;;;17.02;7.10;;;;;;;14.97;100.00;100985.06;5003027;28;20084;-77
2021/09/16 01:08:38;;;;;;;16.00;7.30;;;;;;;14.92;100.00;100985.59;4968901;28;20540;-75
2021/09/16 01:11:03;;;;;;;14.82;7.07;;;;;;;14.94;100.00;100982.78;4985818;28;20039;-76
2021/09/16 01:13:29;;;;;;;17.02;7.07;;;;;;;14.91;100.00;100981.28;4979913;28;20193;-75
2021/09/16 01:15:58;;;;;;;17.25;7.40;;;;;;;14.91;100.00;100973.38;4961508;28;20033;-78
2021/09/16 01:18:24;;;;;;;12.48;6.22;;;;;;;14.96;100.00;100986.06;4957973;28;20042;-75
2021/09/16 01:20:49;;;;;;;17.75;7.18;;;;;;;14.91;100.00;100985.75;4999723;28;20152;-74
2021/09/16 01:23:15;;;;;;;15.80;7.28;;;;;;;14.96;100.00;100988.72;4980037;28;20220;-77
2021/09/16 01:25:40;;;;;;;17.52;6.70;;;;;;;14.93;100.00;100981.94;4989996;28;20034;-76
2021/09/16 01:28:06;;;;;;;12.43;6.72;;;;;;;14.92;100.00;100987.41;4993289;28;20528;-75
2021/09/16 01:30:32;;;;;;;18.45;6.85;;;;;;;14.91;100.00;100978.66;4993269;28;20041;-77
2021/09/16 01:32:58;;;;;;;10.88;6.47;;;;;;;14.91;100.00;100988.41;4995201;28;20042;-75
2021/09/16 01:35:26;;;;;;;17.77;6.82;;;;;;;14.86;100.00;100982.78;4975498;28;20171;-75
2021/09/16 01:37:53;;;;;;;33.08;7.38;;;;;;;14.90;100.00;100998.16;4987164;28;20877;-74
2021/09/16 01:40:21;;;;;;;16.38;6.60;;;;;;;14.83;100.00;100996.34;4975230;28;20061;-75
2021/09/16 01:42:48;;;;;;;19.40;6.63;;;;;;;14.81;100.00;100996.50;4964627;28;20106;-74
2021/09/16 01:45:16;;;;;;;10.65;6.43;;;;;;;14.82;100.00;100992.03;5015247;28;20037;-77
2021/09/16 01:47:43;;;;;;;11.65;6.32;;;;;;;14.77;100.00;100987.28;4985185;28;20037;-77
2021/09/16 01:50:12;;;;;;;16.17;6.35;;;;;;;14.79;100.00;100998.50;5010619;28;20757;-78
2021/09/16 01:52:38;;;;;;;21.17;6.70;;;;;;;14.70;100.00;100989.75;4997184;28;20029;-75
2021/09/16 01:55:04;;;;;;;19.27;6.50;;;;;;;14.67;100.00;100997.19;4991452;28;20101;-77
2021/09/16 01:57:29;;;;;;;18.90;6.32;;;;;;;14.68;100.00;100997.03;4987197;28;20049;-77
2021/09/16 01:59:55;;;;;;;16.15;5.90;;;;;;;14.68;100.00;100993.56;4981851;28;20060;-75
2021/09/16 02:02:21;;;;;;;10.80;5.22;;;;;;;14.74;100.00;100991.06;5004721;28;20072;-75
2021/09/16 02:04:46;;;;;;;11.15;4.90;;;;;;;14.74;100.00;100992.88;4974850;28;20113;-76
2021/09/16 02:07:12;;;;;;;11.48;4.32;;;;;;;14.65;100.00;100994.69;5000701;28;20117;-75
2021/09/16 02:09:37;;;;;;;11.32;4.15;;;;;;;14.59;100.00;100977.72;4986527;28;20121;-75
2021/09/16 02:12:03;;;;;;;14.27;3.92;;;;;;;14.59;100.00;100992.75;4969575;28;20474;-76
2021/09/16 02:14:29;;;;;;;15.57;4.38;;;;;;;14.52;100.00;100989.06;4980333;28;20041;-75
2021/09/16 02:16:54;;;;;;;15.57;3.53;;;;;;;14.47;100.00;100994.88;4974745;28;20026;-77
2021/09/16 02:19:20;;;;;;;13.60;3.10;;;;;;;14.45;100.00;100996.84;5008465;28;20064;-75
2021/09/16 02:21:46;;;;;;;17.10;3.00;;;;;;;14.41;100.00;100993.72;5012934;28;20053;-76
2021/09/16 02:24:11;;;;;;;10.57;2.80;;;;;;;14.33;100.00;100998.97;4978535;28;20432;-77
2021/09/16 02:26:37;;;;;;;16.15;3.00;;;;;;;14.31;100.00;101008.88;4950873;28;20038;-74
2021/09/16 02:29:02;;;;;;;14.45;2.45;;;;;;;14.27;100.00;101010.19;4993434;28;20037;-78
2021/09/16 02:31:28;;;;;;;9.48;2.50;;;;;;;14.27;100.00;101006.75;4960332;28;20507;-76
2021/09/16 02:33:54;;;;;;;15.82;2.63;;;;;;;14.20;100.00;101009.19;4957803;28;20038;-76
2021/09/16 02:36:19;;;;;;;10.88;2.50;;;;;;;14.23;100.00;101005.41;4993906;28;20042;-77
2021/09/16 02:38:45;;;;;;;5.65;2.10;;;;;;;14.17;100.00;101002.44;4972840;28;20065;-76
2021/09/16 02:41:10;;;;;;;8.63;2.22;;;;;;;14.16;100.00;101011.34;4954782;28;20035;-75
2021/09/16 02:43:36;;;;;;;11.50;2.30;;;;;;;14.15;100.00;101000.97;4992340;28;20551;-75
2021/09/16 02:46:02;;;;;;;6.90;1.73;;;;;;;14.13;100.00;101008.22;4970872;28;20022;-75
2021/09/16 02:48:28;;;;;;;12.00;2.08;;;;;;;14.08;100.00;101003.41;4985848;28;20038;-77
2021/09/16 02:50:53;;;;;;;11.27;2.10;;;;;;;14.12;100.00;101017.94;4999007;28;20878;-77
2021/09/16 02:53:19;;;;;;;8.80;2.05;;;;;;;14.11;100.00;101012.81;4991618;28;20120;-78
2021/09/16 02:55:44;;;;;;;14.85;3.25;;;;;;;14.09;100.00;101014.78;4992497;28;20080;-77
2021/09/16 02:58:10;;;;;;;5.53;1.92;;;;;;;14.09;100.00;101010.34;4966586;28;20042;-75
2021/09/16 03:00:36;;;;;;;13.85;2.13;;;;;;;14.08;100.00;101016.59;4966065;28;20045;-74
2021/09/16 03:03:05;;;;;;;11.00;2.15;;;;;;;14.07;100.00;101017.63;4995867;28;20046;-77
2021/09/16 03:05:31;;;;;;;8.25;2.13;;;;;;;14.08;100.00;101021.06;4996003;28;20061;-77
2021/09/16 03:07:56;;;;;;;14.07;1.98;;;;;;;14.03;100.00;101016.25;4995040;28;20046;-76
2021/09/16 03:10:22;;;;;;;8.75;2.08;;;;;;;14.05;100.00;101018.75;4970564;28;20121;-77
2021/09/16 03:12:47;;;;;;;14.85;2.22;;;;;;;13.98;100.00;101013.31;4981279;28;20046;-76
2021/09/16 03:15:14;;;;;;;11.38;2.15;;;;;;;14.02;100.00;101020.72;5020460;28;20038;-75
2021/09/16 03:17:40;;;;;;;11.02;2.70;;;;;;;13.99;100.00;101014.94;4977956;28;20049;-78
2021/09/16 03:20:07;;;;;;;10.95;1.90;;;;;;;13.97;100.00;101023.00;4979123;28;20042;-75
2021/09/16 03:22:32;;;;;;;5.20;2.08;;;;;;;13.87;100.00;101011.78;4992132;28;20045;-77
2021/09/16 03:24:58;;;;;;;4.00;1.70;;;;;;;13.85;100.00;101015.59;4998086;28;20091;-75
2021/09/16 03:27:24;;;;;;;4.72;1.50;;;;;;;13.83;100.00;101021.84;5014980;28;20072;-76
2021/09/16 03:29:49;;;;;;;7.68;1.80;;;;;;;13.82;100.00;101030.75;4963154;28;20101;-76
2021/09/16 03:32:15;;;;;;;14.82;2.00;;;;;;;13.85;100.00;101026.94;4992925;28;20045;-73
2021/09/16 03:34:40;;;;;;;8.65;1.58;;;;;;;13.79;100.00;101020.50;4985817;28;20063;-77
2021/09/16 03:37:06;;;;;;;6.80;1.50;;;;;;;13.82;100.00;101027.25;4982461;28;20034;-75
2021/09/16 03:39:31;;;;;;;5.20;1.40;;;;;;;13.77;100.00;101027.75;4982723;28;20057;-75
2021/09/16 03:41:57;;;;;;;9.63;1.75;;;;;;;13.78;100.00;101031.22;4991306;28;20427;-78
2021/09/16 03:44:22;;;;;;;6.65;1.50;;;;;;;13.83;100.00;101021.03;4998159;28;20030;-75
2021/09/16 03:46:48;;;;;;;5.63;1.50;;;;;;;13.79;100.00;101025.78;4989890;28;20038;-75
2021/09/16 03:49:14;;;;;;;10.93;1.60;;;;;;;13.76;100.00;101012.09;5008802;28;20039;-74
2021/09/16 03:51:39;;;;;;;10.25;1.55;;;;;;;13.78;100.00;101025.94;4973875;28;20069;-76
2021/09/16 03:54:05;;;;;;;16.00;1.63;;;;;;;13.75;100.00;101028.88;4990368;28;20034;-75
2021/09/16 03:56:30;;;;;;;12.07;1.40;;;;;;;13.73;100.00;101031.72;4942385;28;20762;-77
2021/09/16 03:58:56;;;;;;;11.10;1.50;;;;;;;13.67;100.00;101028.88;4958046;28;20541;-74
2021/09/16 04:01:21;;;;;;;7.10;1.55;;;;;;;13.67;100.00;101034.97;4981287;28;20072;-76
2021/09/16 04:03:47;;;;;;;10.88;1.13;;;;;;;13.58;100.00;101036.75;4958336;28;20034;-76
2021/09/16 04:06:12;;;;;;;7.30;1.27;;;;;;;13.58;100.00;101036.75;4974225;28;20069;-74
2021/09/16 04:08:38;;;;;;;4.53;1.13;;;;;;;13.57;100.00;101040.38;4955431;28;20103;-75
2021/09/16 04:11:04;;;;;;;7.07;1.27;;;;;;;13.58;100.00;101041.19;4999474;28;20034;-76
2021/09/16 04:13:29;;;;;;;5.80;1.13;;;;;;;13.55;100.00;101038.88;4984830;28;20048;-76
2021/09/16 04:15:55;;;;;;;10.82;1.38;;;;;;;13.54;100.00;101039.84;5021224;28;20069;-74
2021/09/16 04:18:20;;;;;;;7.82;1.20;;;;;;;13.49;100.00;101045.59;4999356;28;20046;-76
2021/09/16 04:20:46;;;;;;;16.90;3.13;;;;;;;13.39;100.00;101043.09;4999659;28;20045;-76
2021/09/16 04:23:11;;;;;;;7.28;1.20;;;;;;;13.31;100.00;101031.69;4959536;28;20706;-77
2021/09/16 04:25:37;;;;;;;8.00;1.05;;;;;;;13.25;100.00;101028.66;4954615;28;20037;-77
2021/09/16 04:28:03;;;;;;;11.52;0.95;;;;;;;13.30;100.00;101035.25;4980500;28;20095;-78
2021/09/16 04:30:28;;;;;;;7.90;1.05;;;;;;;13.21;100.00;101034.41;4978797;28;20063;-75
2021/09/16 04:32:54;;;;;;;4.28;1.00;;;;;;;13.15;100.00;101035.03;4965098;28;20096;-76
2021/09/16 04:35:19;;;;;;;9.27;1.45;;;;;;;13.09;100.00;101052.28;4976787;28;20038;-76
2021/09/16 04:37:45;;;;;;;11.23;1.27;;;;;;;13.08;100.00;101045.34;5026362;23;20060;-76
2021/09/16 04:40:11;;;;;;;8.05;1.20;;;;;;;13.00;100.00;101042.69;5034044;28;20120;-76
2021/09/16 04:42:36;;;;;;;5.55;0.90;;;;;;;12.91;100.00;101039.16;5015971;28;20647;-75
2021/09/16 04:45:02;;;;;;;4.30;1.20;;;;;;;12.91;100.00;101038.34;5024307;28;20033;-77
2021/09/16 04:47:28;;;;;;;10.05;1.40;;;;;;;12.91;100.00;101047.06;5009094;28;20076;-77
2021/09/16 04:49:53;;;;;;;5.70;1.50;;;;;;;13.00;100.00;101055.84;5006714;28;20046;-77
2021/09/16 04:52:19;;;;;;;6.93;1.60;;;;;;;12.99;100.00;101039.22;4998848;28;20039;-77
2021/09/16 04:54:44;;;;;;;9.15;1.50;;;;;;;13.10;100.00;101053.13;5005470;28;20097;-76
2021/09/16 04:57:10;;;;;;;7.18;1.27;;;;;;;13.05;100.00;101045.66;5021964;28;20223;-78
2021/09/16 04:59:36;;;;;;;11.82;1.85;;;;;;;12.96;100.00;101047.44;5007481;28;20036;-76
2021/09/16 05:02:01;;;;;;;6.07;1.38;;;;;;;12.93;100.00;101041.66;5013716;28;20037;-78
2021/09/16 05:04:27;;;;;;;6.97;1.45;;;;;;;12.89;100.00;101045.56;5011870;28;20083;-79
2021/09/16 05:06:54;;;;;;;9.98;2.47;;;;;;;12.83;100.00;101044.38;4988312;28;20124;-78
2021/09/16 05:09:19;;;;;;;10.23;2.22;;;;;;;12.79;100.00;101053.53;4995308;28;20049;-79
2021/09/16 05:11:46;;;;;;;10.05;1.80;;;;;;;12.76;100.00;101049.44;5006565;28;20072;-76
2021/09/16 05:14:12;;;;;;;7.20;1.75;;;;;;;12.68;100.00;101046.75;5009082;28;20128;-77
2021/09/16 05:16:38;;;;;;;11.52;2.20;;;;;;;12.73;100.00;101057.63;5000631;28;20132;-76
2021/09/16 05:19:03;;;;;;;10.02;2.47;;;;;;;12.72;100.00;101055.16;5046636;28;20028;-78
2021/09/16 05:21:29;;;;;;;7.13;2.42;;;;;;;12.71;100.00;101048.22;4998675;28;20496;-81
2021/09/16 05:23:56;;;;;;;9.60;4.03;;;;;;;12.80;100.00;101048.13;4987336;28;20040;-79
2021/09/16 05:26:21;;;;;;;8.50;3.38;;;;;;;12.84;100.00;101052.09;5006305;28;20124;-80
2021/09/16 05:28:47;;;;;;;10.60;3.60;;;;;;;12.89;100.00;101056.09;5029424;28;20056;-77
2021/09/16 05:31:13;;;;;;;6.68;3.90;;;;;;;12.92;100.00;101058.41;5017741;28;20040;-78
2021/09/16 05:33:38;;;;;;;14.00;4.43;;;;;;;12.95;100.00;101056.31;4999681;28;20037;-78
2021/09/16 05:36:04;;;;;;;9.55;4.30;;;;;;;13.02;100.00;101054.72;5032629;28;20041;-77
2021/09/16 05:38:30;;;;;;;8.73;4.80;;;;;;;13.11;100.00;101058.22;5025943;28;20521;-78
2021/09/16 05:40:56;;;;;;;13.65;5.25;;;;;;;13.18;100.00;101053.16;4999090;28;20029;-78
2021/09/16 05:43:22;;;;;;;9.45;5.07;;;;;;;13.19;100.00;101055.63;5006647;28;20041;-75
2021/09/16 05:45:47;;;;;;;12.55;6.50;;;;;;;13.24;100.00;101052.50;5033030;28;20025;-79
2021/09/16 05:48:13;;;;;;;14.05;5.95;;;;;;;13.33;100.00;101058.69;5005690;28;20044;-75
2021/09/16 05:50:38;;;;;;;11.25;6.75;;;;;;;13.36;100.00;101053.13;5014369;28;20080;-78
2021/09/16 05:53:04;;;;;;;11.13;6.72;;;;;;;13.42;100.00;101055.13;5006590;28;20032;-78
2021/09/16 05:55:30;;;;;;;14.63;6.65;;;;;;;13.47;100.00;101058.13;5004183;28;20035;-76
2021/09/16 05:57:57;;;;;;;14.10;6.63;;;;;;;13.48;100.00;101062.38;4998021;28;20144;-77
2021/09/16 06:00:23;;;;;;;10.65;6.50;;;;;;;13.48;100.00;101054.47;4999257;28;20120;-78
2021/09/16 06:02:52;;;;;;;12.50;7.07;;;;;;;13.53;100.00;101046.94;5000639;28;20044;-78
2021/09/16 06:05:17;;;;;;;15.63;7.20;;;;;;;13.56;100.00;101056.31;5033940;28;20037;-78
2021/09/16 06:07:43;;;;;;;11.30;7.90;;;;;;;13.54;100.00;101053.88;5017361;28;20098;-76
2021/09/16 06:10:09;;;;;;;16.33;8.40;;;;;;;13.59;100.00;101061.28;5012798;28;20029;-77
2021/09/16 06:12:35;;;;;;;15.15;8.15;;;;;;;13.58;100.00;101054.34;4994365;28;20045;-79
2021/09/16 06:15:01;;;;;;;15.13;9.05;;;;;;;13.64;100.00;101072.19;5017710;28;20044;-77
2021/09/16 06:17:27;;;;;;;11.77;8.80;;;;;;;13.65;100.00;101065.09;5035457;28;20033;-75
2021/09/16 06:19:52;;;;;;;14.05;9.65;;;;;;;13.71;100.00;101064.47;5016755;28;20505;-79
2021/09/16 06:22:18;;;;;;;14.20;9.95;;;;;;;13.73;100.00;101065.97;5021281;28;20051;-77
2021/09/16 06:24:44;;;;;;;21.33;10.52;;;;;;;13.76;100.00;101078.00;5032638;28;20405;-80
2021/09/16 06:27:10;;;;;;;23.75;11.25;;;;;;;13.77;100.00;101077.03;5033760;28;20610;-76
2021/09/16 06:29:36;;;;;;;15.70;11.52;;;;;;;13.76;100.00;101086.72;4996197;28;20029;-78
2021/09/16 06:32:02;;;;;;;15.80;11.13;;;;;;;13.82;100.00;101078.22;5003920;28;20076;-80
2021/09/16 06:34:27;;;;;;;21.42;12.27;;;;;;;13.87;100.00;101080.34;5006240;28;20090;-78
2021/09/16 06:36:53;;;;;;;20.48;12.52;;;;;;;13.90;100.00;101071.28;5007573;28;20116;-77
2021/09/16 06:39:18;;;;;;;16.77;12.82;;;;;;;13.94;100.00;101081.38;5008151;28;20034;-74
2021/09/16 06:41:44;;;;;;;18.98;13.73;;;;;;;14.00;100.00;101072.00;4979363;28;20033;-79
2021/09/16 06:44:10;;;;;;;27.00;13.75;;;;;;;14.02;100.00;101076.09;5022533;28;20052;-79
2021/09/16 06:46:35;;;;;;;23.73;13.70;;;;;;;14.00;100.00;101072.81;5003611;28;20039;-77
2021/09/16 06:49:01;;;;;;;20.63;13.57;;;;;;;14.02;100.00;101080.56;5002376;28;20037;-77
2021/09/16 06:51:26;;;;;;;19.52;13.48;;;;;;;14.04;100.00;101083.03;5005246;28;20086;-79
2021/09/16 06:53:54;;;;;;;18.20;12.90;;;;;;;14.06;100.00;101083.69;5036098;28;20040;-80
2021/09/16 06:56:19;;;;;;;16.20;13.30;;;;;;;14.09;100.00;101083.38;5003861;28;20049;-77
2021/09/16 06:58:45;;;;;;;21.10;13.13;;;;;;;14.08;100.00;101079.91;4995578;28;20040;-79
2021/09/16 07:01:10;;;;;;;22.08;12.68;;;;;;;14.09;100.00;101086.84;4995651;28;20045;-78
2021/09/16 07:03:36;;;;;;;17.40;12.07;;;;;;;14.08;100.00;101089.66;5018510;28;20107;-78
2021/09/16 07:06:03;;;;;;;17.08;12.65;;;;;;;14.14;100.00;101089.00;4999481;28;20107;-75
2021/09/16 07:08:28;;;;;;;19.38;11.70;;;;;;;14.09;100.00;101094.75;5023095;28;20420;-76
2021/09/16 07:10:54;;;;;;;18.92;11.32;;;;;;;14.07;100.00;101094.09;5014264;28;20025;-76
2021/09/16 07:13:19;;;;;;;16.38;11.38;;;;;;;14.14;100.00;101096.91;5003999;28;20052;-79
2021/09/16 07:15:45;;;;;;;18.65;11.07;;;;;;;14.10;100.00;101085.03;5003824;28;20032;-78
2021/09/16 07:18:10;;;;;;;18.10;10.82;;;;;;;14.14;100.00;101095.09;5010916;28;20482;-79
2021/09/16 07:20:36;;;;;;;13.48;10.63;;;;;;;14.16;100.00;101097.56;5018784;28;20039;-78
2021/09/16 07:23:01;;;;;;;12.50;10.52;;;;;;;14.20;100.00;101099.75;5008046;28;20625;-76
2021/09/16 07:25:27;;;;;;;16.15;10.68;;;;;;;14.30;100.00;101101.41;4996692;28;20025;-81
2021/09/16 07:27:53;;;;;;;14.68;9.85;;;;;;;14.37;100.00;101097.97;5007927;28;20405;-77
2021/09/16 07:30:18;;;;;;;13.35;10.82;;;;;;;14.41;100.00;101104.56;5034723;28;20036;-80
2021/09/16 07:32:44;;;;;;;18.73;11.38;;;;;;;14.48;100.00;101102.06;4999970;28;20033;-81
2021/09/16 07:35:10;;;;;;;14.65;10.82;;;;;;;14.43;100.00;101101.75;4983551;28;20471;-77
2021/09/16 07:37:35;;;;;;;17.35;11.00;;;;;;;14.52;100.00;101106.06;5023094;28;20569;-76
2021/09/16 07:40:02;;;;;;;16.45;11.30;;;;;;;14.53;100.00;101110.34;5022643;28;20040;-78
2021/09/16 07:42:28;;;;;;;16.13;11.30;;;;;;;14.46;100.00;101105.88;5056167;28;20037;-78
2021/09/16 07:44:54;;;;;;;17.90;11.18;;;;;;;14.44;100.00;101097.28;5020281;28;20024;-77
2021/09/16 07:47:19;;;;;;;16.23;11.52;;;;;;;14.52;100.00;101113.13;5017656;28;20040;-78
2021/09/16 07:49:45;;;;;;;13.18;10.93;;;;;;;14.52;100.00;101107.84;5004417;28;20041;-78
2021/09/16 07:52:12;;;;;;;15.32;10.10;;;;;;;14.60;100.00;101107.91;5017973;28;20072;-76
2021/09/16 07:54:38;;;;;;;12.40;10.77;;;;;;;14.76;100.00;101112.34;5007571;28;20814;-78
2021/09/16 07:57:04;;;;;;;12.80;10.18;;;;;;;14.82;100.00;101116.16;5019897;28;20032;-79
2021/09/16 07:59:30;;;;;;;13.90;9.52;;;;;;;14.87;100.00;101119.94;5005789;28;20036;-78
2021/09/16 08:01:56;;;;;;;13.63;10.07;;;;;;;14.90;100.00;101111.72;5019626;28;20326;-80
2021/09/16 08:04:22;;;;;;;12.27;9.63;;;;;;;14.95;100.00;101125.22;5016090;28;20112;-77
2021/09/16 08:06:47;;;;;;;16.15;10.48;;;;;;;15.00;100.00;101114.16;5031659;28;20033;-78
2021/09/16 08:09:13;;;;;;;14.82;9.68;;;;;;;15.03;100.00;101113.84;5003615;28;20040;-79
2021/09/16 08:11:39;;;;;;;17.63;9.52;;;;;;;15.01;100.00;101121.09;5036564;28;20044;-79
2021/09/16 08:14:08;;;;;;;16.40;9.40;;;;;;;15.07;100.00;101119.59;5012443;28;20332;-81
2021/09/16 08:16:34;;;;;;;11.25;8.70;;;;;;;15.10;100.00;101124.56;5001664;28;20037;-81
2021/09/16 08:19:00;;;;;;;12.15;8.57;;;;;;;15.20;100.00;101127.88;5021324;28;20033;-79
2021/09/16 08:21:27;;;;;;;14.75;8.55;;;;;;;15.17;100.00;101128.19;5021714;28;20036;-80
2021/09/16 08:23:54;;;;;;;13.35;8.02;;;;;;;15.17;100.00;101131.66;5024184;28;20029;-79
2021/09/16 08:26:19;;;;;;;12.35;8.18;;;;;;;15.19;100.00;101119.09;5032960;28;20080;-79
2021/09/16 08:28:45;;;;;;;16.02;8.13;;;;;;;15.19;100.00;101128.84;5005783;28;20033;-78
2021/09/16 08:31:11;;;;;;;13.15;8.43;;;;;;;15.15;100.00;101125.72;5017243;28;20032;-77
2021/09/16 08:33:37;;;;;;;15.43;8.13;;;;;;;15.22;100.00;101128.53;5000332;28;20132;-80
2021/09/16 08:36:03;;;;;;;12.60;7.57;;;;;;;15.29;100.00;101126.00;5006755;28;20064;-79
2021/09/16 08:38:29;;;;;;;13.50;7.95;;;;;;;15.42;100.00;101128.16;5032495;28;20041;-79
2021/09/16 08:40:55;;;;;;;14.68;7.60;;;;;;;15.51;100.00;101130.59;5026012;28;20128;-82
2021/09/16 08:43:27;;;;;;;14.30;6.40;;;;;;;15.59;100.00;101132.38;5012139;28;20040;-81
2021/09/16 08:45:53;;;;;;;12.65;6.07;;;;;;;15.57;100.00;101129.09;5014129;28;20040;-81
2021/09/16 08:48:19;;;;;;;7.40;5.70;;;;;;;15.52;100.00;101137.53;5014252;28;20033;-80
2021/09/16 08:50:45;;;;;;;14.70;6.28;;;;;;;15.54;100.00;101129.44;5032159;28;20763;-78
2021/09/16 08:53:17;;;;;;;11.75;5.55;;;;;;;15.67;100.00;101121.81;5017925;28;20039;-80
2021/09/16 08:55:46;;;;;;;5.93;4.47;;;;;;;15.82;100.00;101115.81;5009088;28;20033;-78
2021/09/16 08:58:12;;;;;;;8.00;4.65;;;;;;;15.96;100.00;101109.81;5035569;28;20028;-78
2021/09/16 09:00:38;;;;;;;7.38;4.32;;;;;;;16.09;100.00;101114.53;5027314;28;20033;-81
2021/09/16 09:03:04;;;;;;;5.40;4.05;;;;;;;16.11;100.00;101110.72;5027870;28;20029;-81
2021/09/16 09:05:30;;;;;;;8.07;3.95;;;;;;;16.23;100.00;101118.25;5036591;28;20048;-78
2021/09/16 09:07:59;;;;;;;7.85;3.75;;;;;;;16.20;100.00;101115.94;5027248;28;20041;-79
2021/09/16 09:10:49;;;;;;;9.02;3.60;;;;;;;16.30;100.00;101116.56;5010868;28;20028;-77
2021/09/16 09:13:27;;;;;;;6.03;3.25;;;;;;;16.51;100.00;101113.28;5045640;28;20037;-78
2021/09/16 09:16:08;;;;;;;5.10;2.35;;;;;;;16.79;100.00;101116.22;5031623;28;20041;-79
2021/09/16 09:18:49;;;;;;;5.80;2.70;;;;;;;17.01;100.00;101119.03;5019660;28;20068;-81
2021/09/16 09:21:17;;;;;;;6.95;2.13;;;;;;;17.05;100.00;101113.19;5017627;28;20108;-80
2021/09/16 09:23:51;;;;;;;7.57;2.30;;;;;;;17.15;100.00;101123.53;5032352;28;20104;-78
2021/09/16 09:26:21;;;;;;;3.10;1.60;;;;;;;17.13;100.00;101129.00;5020841;28;20032;-80
2021/09/16 09:28:49;;;;;;;4.60;1.73;;;;;;;17.11;100.00;101124.91;5024540;28;20052;-78
2021/09/16 09:31:19;;;;;;;4.82;1.63;;;;;;;17.09;100.00;101125.06;5018249;28;20137;-79
2021/09/16 09:33:45;;;;;;;8.82;1.75;;;;;;;16.99;100.00;101132.47;5012728;28;20043;-78
2021/09/16 09:36:18;;;;;;;6.97;1.67;;;;;;;16.95;100.00;101139.09;5019329;28;20048;-80
2021/09/16 09:38:50;;;;;;;4.85;1.98;;;;;;;16.98;100.00;101130.81;5030991;28;20135;-81
2021/09/16 09:41:27;;;;;;;5.32;1.40;;;;;;;17.03;100.00;101131.09;5045273;28;20069;-82
2021/09/16 09:44:04;;;;;;;8.98;1.90;;;;;;;17.04;100.00;101126.63;5007658;28;20044;-77
2021/09/16 09:46:48;;;;;;;7.55;1.55;;;;;;;17.05;100.00;101128.28;5013895;28;20071;-79
2021/09/16 09:49:20;;;;;;;8.65;2.20;;;;;;;17.20;100.00;101129.13;5023212;28;20064;-77
2021/09/16 09:51:48;;;;;;;5.30;2.03;;;;;;;17.32;100.00;101134.81;5023493;28;20048;-77
2021/09/16 09:54:15;;;;;;;8.27;1.90;;;;;;;17.34;100.00;101135.44;5027728;28;20028;-77
2021/09/16 09:56:57;;;;;;;8.05;2.38;;;;;;;17.56;100.00;101132.91;5006268;28;20120;-79
2021/09/16 09:59:24;;;;;;;5.67;1.70;;;;;;;17.68;100.00;101137.53;5008202;28;20047;-75
2021/09/16 10:01:50;;;;;;;5.35;1.75;;;;;;;17.83;100.00;101136.72;5007345;28;20285;-78
2021/09/16 10:04:23;;;;;;;10.63;1.83;;;;;;;17.84;100.00;101143.69;5007377;28;20033;-78
2021/09/16 10:06:49;;;;;;;9.63;2.33;;;;;;;17.81;100.00;101136.09;5006562;28;20060;-79
2021/09/16 10:09:15;;;;;;;6.38;2.03;;;;;;;17.78;100.00;101139.09;5025138;28;20036;-77
2021/09/16 10:11:46;;;;;;;6.68;2.15;;;;;;;17.73;100.00;101137.00;5010796;28;20043;-78
2021/09/16 10:14:13;;;;;;;5.60;2.15;;;;;;;17.60;100.00;101134.19;4996863;28;20094;-77
2021/09/16 10:16:39;;;;;;;4.75;1.80;;;;;;;17.62;100.00;101135.63;5015655;28;20044;-78
2021/09/16 10:19:05;;;;;;;4.40;1.80;;;;;;;17.67;100.00;101141.22;5006624;28;20039;-78
2021/09/16 10:21:32;;;;;;;6.78;2.30;;;;;;;17.82;100.00;101135.91;5007730;28;20458;-79
2021/09/16 10:24:00;;;;;;;6.63;2.10;;;;;;;17.90;100.00;101135.00;5025933;28;20358;-78
2021/09/16 10:26:36;;;;;;;3.60;1.63;;;;;;;18.03;100.00;101139.66;5024658;28;20041;-79
2021/09/16 10:29:04;;;;;;;7.35;1.98;;;;;;;18.09;100.00;101136.25;4999737;28;20029;-78
2021/09/16 10:31:30;;;;;;;7.68;1.83;;;;;;;18.08;100.00;101138.09;5019926;28;20056;-80
2021/09/16 10:33:56;;;;;;;7.95;2.30;;;;;;;18.04;100.00;101128.03;5006953;28;20033;-78
2021/09/16 10:36:23;;;;;;;4.15;1.77;;;;;;;17.95;99.69;101134.44;5004470;28;20029;-78
2021/09/16 10:38:51;;;;;;;6.40;2.00;;;;;;;17.86;100.00;101137.22;5018019;23;20041;-81
2021/09/16 10:41:34;;;;;;;5.18;2.10;;;;;;;17.91;100.00;101139.28;5011672;28;20046;-81
2021/09/16 10:43:59;;;;;;;7.43;2.30;;;;;;;17.97;100.00;101135.06;5005618;28;20033;-81
2021/09/16 10:46:25;;;;;;;4.97;1.58;;;;;;;17.95;100.00;101143.25;4996084;28;20022;-81
2021/09/16 10:48:51;;;;;;;10.30;2.80;;;;;;;17.90;100.00;101138.47;5002542;28;20492;-80
2021/09/16 10:51:35;;;;;;;6.80;1.70;;;;;;;17.93;100.00;101137.28;4977553;28;20121;-85
2021/09/16 10:54:00;;;;;;;4.60;1.30;;;;;;;17.97;93.05;101138.56;4982619;28;20041;-81
2021/09/16 10:56:26;;;;;;;6.68;1.52;;;;;;;17.92;100.00;101143.59;5032844;28;20094;-80
2021/09/16 10:59:03;;;;;;;6.97;1.40;;;;;;;17.95;100.00;101135.28;5106476;27;20140;-74
2021/09/16 11:01:54;;;;;;;3.80;1.38;;;;;;;18.03;99.77;101137.00;5065343;28;20138;-76
2021/09/16 11:05:06;;;;;;;5.15;1.42;;;;;;;17.97;100.00;101143.03;5065703;28;20380;-74
2021/09/16 11:07:37;;;;;;;4.63;1.67;;;;;;;17.78;100.00;101144.41;5036865;28;20052;-75
2021/09/16 11:10:21;;;;;;;4.22;1.30;;;;;;;17.78;100.00;101142.59;5045502;28;20426;-76